createdAt,value
2018-03-22T00:00:43.876Z,12.60
2018-03-22T00:03:18.780Z,8.87
2018-03-22T00:05:53.385Z,10.83
2018-03-22T00:08:27.626Z,9.57
2018-03-22T00:11:00.637Z,10.20
2018-03-22T00:16:14.605Z,8.03
2018-03-22T00:18:47.452Z,10.50
2018-03-22T00:21:24.124Z,9.90
2018-03-22T00:23:57.274Z,8.13
2018-03-22T00:26:28.704Z,12.80
2018-03-22T00:29:01.482Z,11.33
2018-03-22T00:31:32.275Z,13.83
2018-03-22T00:34:02.025Z,8.00
2018-03-22T00:36:31.574Z,12.47
2018-03-22T00:39:01.902Z,9.73
2018-03-22T00:41:31.400Z,9.13
2018-03-22T00:44:05.064Z,11.50
2018-03-22T00:46:36.575Z,14.37
2018-03-22T00:49:06.684Z,9.60
2018-03-22T00:51:36.184Z,11.50
2018-03-22T00:54:05.677Z,12.37
2018-03-22T00:56:35.176Z,10.70
2018-03-22T00:59:04.700Z,11.80
2018-03-22T01:01:35.740Z,6.20
2018-03-22T01:04:11.701Z,9.13
2018-03-22T01:06:47.292Z,10.63
2018-03-22T01:09:20.230Z,10.77
2018-03-22T01:11:50.494Z,12.27
2018-03-22T01:14:20.062Z,11.20
2018-03-22T01:16:50.354Z,13.00
2018-03-22T01:19:22.749Z,7.77
2018-03-22T01:21:53.494Z,6.53
2018-03-22T01:24:24.292Z,12.27
2018-03-22T01:26:54.839Z,9.57
2018-03-22T01:29:27.919Z,11.33
2018-03-22T01:32:00.738Z,8.00
2018-03-22T01:34:36.298Z,11.13
2018-03-22T01:37:07.306Z,10.93
2018-03-22T01:39:37.770Z,12.43
2018-03-22T01:42:07.914Z,8.83
2018-03-22T01:44:59.846Z,10.53
2018-03-22T01:47:31.773Z,10.00
2018-03-22T01:50:05.964Z,9.43
2018-03-22T01:52:51.679Z,10.33
2018-03-22T01:55:21.204Z,10.63
2018-03-22T01:57:50.725Z,9.83
2018-03-22T02:00:22.093Z,11.83
2018-03-22T02:02:56.657Z,9.00
2018-03-22T02:05:28.258Z,12.37
2018-03-22T02:08:00.104Z,16.50
2018-03-22T02:10:29.632Z,7.63
2018-03-22T02:13:00.825Z,9.00
2018-03-22T02:15:30.330Z,12.27
2018-03-22T02:17:59.843Z,10.53
2018-03-22T02:20:29.667Z,13.60
2018-03-22T02:23:01.095Z,10.70
2018-03-22T02:25:34.187Z,11.33
2018-03-22T02:28:05.023Z,12.07
2018-03-22T02:30:38.742Z,13.13
2018-03-22T02:33:09.985Z,11.17
2018-03-22T02:35:40.033Z,7.80
2018-03-22T02:38:10.308Z,11.10
2018-03-22T02:40:40.304Z,14.30
2018-03-22T02:43:10.286Z,11.50
2018-03-22T02:45:44.188Z,10.40
2018-03-22T02:48:16.625Z,10.97
2018-03-22T02:50:50.848Z,9.80
2018-03-22T02:53:27.581Z,10.40
2018-03-22T02:56:02.166Z,9.97
2018-03-22T02:58:34.683Z,13.50
2018-03-22T03:01:13.544Z,11.67
2018-03-22T03:03:46.043Z,9.90
2018-03-22T03:06:20.804Z,14.97
2018-03-22T03:08:51.888Z,12.77
2018-03-22T03:11:22.499Z,11.07
2018-03-22T03:13:51.989Z,8.20
2018-03-22T03:16:21.543Z,10.77
2018-03-22T03:18:51.047Z,9.33
2018-03-22T03:21:20.953Z,11.87
2018-03-22T03:23:52.293Z,14.17
2018-03-22T03:26:26.847Z,11.93
2018-03-22T03:29:02.406Z,10.53
2018-03-22T03:31:38.044Z,10.40
2018-03-22T03:34:10.449Z,12.00
2018-03-22T03:36:46.256Z,10.27
2018-03-22T03:39:21.805Z,9.17
2018-03-22T03:41:53.703Z,11.73
2018-03-22T03:44:31.166Z,8.97
2018-03-22T03:47:05.636Z,12.73
2018-03-22T03:49:37.976Z,6.97
2018-03-22T03:52:17.773Z,9.70
2018-03-22T03:54:47.278Z,9.93
2018-03-22T03:57:23.720Z,13.60
2018-03-22T03:59:58.180Z,10.53
2018-03-22T04:02:28.445Z,10.30
2018-03-22T04:04:59.307Z,8.20
2018-03-22T04:07:29.086Z,10.33
2018-03-22T04:09:59.542Z,13.27
2018-03-22T04:12:29.121Z,10.97
2018-03-22T04:14:59.259Z,10.10
2018-03-22T04:17:32.814Z,9.53
2018-03-22T04:20:07.499Z,10.43
2018-03-22T04:22:38.039Z,9.50
2018-03-22T04:25:07.568Z,9.83
2018-03-22T04:27:37.062Z,8.57
2018-03-22T04:30:08.410Z,12.80
2018-03-22T04:32:38.939Z,11.17
2018-03-22T04:35:08.667Z,14.83
2018-03-22T04:37:42.509Z,10.97
2018-03-22T04:40:15.992Z,9.23
2018-03-22T04:42:49.950Z,13.20
2018-03-22T04:45:25.949Z,10.53
2018-03-22T04:47:59.363Z,8.83
2018-03-22T04:50:38.008Z,10.97
2018-03-22T04:53:09.492Z,10.27
2018-03-22T04:55:47.313Z,10.57
2018-03-22T04:58:19.768Z,11.67
2018-03-22T05:00:54.682Z,10.90
2018-03-22T05:03:29.242Z,12.43
2018-03-22T05:06:03.259Z,10.53
2018-03-22T05:08:36.628Z,12.77
2018-03-22T05:11:08.273Z,9.70
2018-03-22T05:13:37.863Z,13.50
2018-03-22T05:16:10.071Z,13.73
2018-03-22T05:18:39.752Z,13.33
2018-03-22T05:21:09.661Z,9.80
2018-03-22T05:23:40.628Z,14.93
2018-03-22T05:26:12.530Z,13.63
2018-03-22T05:28:48.051Z,13.30
2018-03-22T05:31:20.201Z,14.40
2018-03-22T05:33:57.179Z,13.57
2018-03-22T05:36:30.149Z,11.90
2018-03-22T05:39:06.753Z,12.33
2018-03-22T05:41:41.534Z,16.13
2018-03-22T05:44:14.460Z,12.10
2018-03-22T05:46:46.158Z,9.10
2018-03-22T05:49:16.350Z,13.10
2018-03-22T05:51:46.078Z,12.60
2018-03-22T05:54:15.582Z,10.30
2018-03-22T05:56:45.086Z,12.33
2018-03-22T05:59:14.843Z,11.83
2018-03-22T06:01:45.290Z,13.53
2018-03-22T06:04:15.152Z,15.63
2018-03-22T06:06:45.108Z,13.60
2018-03-22T06:09:14.747Z,14.00
2018-03-22T06:11:45.412Z,10.07
2018-03-22T06:14:14.930Z,14.17
2018-03-22T06:16:49.470Z,11.37
2018-03-22T06:19:40.594Z,12.03
2018-03-22T06:22:10.887Z,9.63
2018-03-22T06:24:41.002Z,10.47
2018-03-22T06:27:10.511Z,12.57
2018-03-22T06:29:43.666Z,11.53
2018-03-22T06:32:14.932Z,12.90
2018-03-22T06:34:52.711Z,14.17
2018-03-22T06:37:29.450Z,15.37
2018-03-22T06:40:03.864Z,14.20
2018-03-22T06:42:34.746Z,12.30
2018-03-22T06:45:07.692Z,14.83
2018-03-22T06:47:37.192Z,11.97
2018-03-22T06:50:07.362Z,12.50
2018-03-22T06:52:36.895Z,13.20
2018-03-22T06:55:10.997Z,15.23
2018-03-22T06:57:40.983Z,11.57
2018-03-22T07:00:10.500Z,12.20
2018-03-22T07:02:47.083Z,10.73
2018-03-22T07:05:21.086Z,13.50
2018-03-22T07:07:53.953Z,13.33
2018-03-22T07:10:28.776Z,14.23
2018-03-22T07:13:13.243Z,18.37
2018-03-22T07:15:42.751Z,11.07
2018-03-22T07:18:25.583Z,12.73
2018-03-22T07:20:56.716Z,10.77
2018-03-22T07:23:27.034Z,13.00
2018-03-22T07:25:57.625Z,16.13
2018-03-22T07:28:32.261Z,10.07
2018-03-22T07:31:06.421Z,14.57
2018-03-22T07:33:56.959Z,10.97
2018-03-22T07:36:27.934Z,10.23
2018-03-22T07:38:57.475Z,15.53
2018-03-22T07:41:27.048Z,10.87
2018-03-22T07:44:06.222Z,15.23
2018-03-22T07:46:36.024Z,14.60
2018-03-22T07:49:08.822Z,13.43
2018-03-22T07:51:40.031Z,11.43
2018-03-22T07:54:11.541Z,11.73
2018-03-22T07:56:45.240Z,16.57
2018-03-22T07:59:15.780Z,14.83
2018-03-22T08:01:45.553Z,13.43
2018-03-22T08:04:15.266Z,14.87
2018-03-22T08:06:45.586Z,11.10
2018-03-22T08:09:16.344Z,11.77
2018-03-22T08:11:48.979Z,11.97
2018-03-22T08:14:25.787Z,11.33
2018-03-22T08:16:56.943Z,15.43
2018-03-22T08:19:50.460Z,13.50
2018-03-22T08:22:21.100Z,10.97
2018-03-22T08:24:50.638Z,15.10
2018-03-22T08:27:20.202Z,11.13
2018-03-22T08:29:50.885Z,10.17
2018-03-22T08:32:29.353Z,9.03
2018-03-22T08:35:21.116Z,12.10
2018-03-22T08:37:50.612Z,11.90
2018-03-22T08:40:20.116Z,9.93
2018-03-22T08:42:50.300Z,10.87
2018-03-22T08:45:23.174Z,13.93
2018-03-22T08:47:58.123Z,9.47
2018-03-22T08:50:31.324Z,15.00
2018-03-22T08:53:08.031Z,12.00
2018-03-22T08:55:40.086Z,11.77
2018-03-22T08:58:15.679Z,10.13
2018-03-22T09:00:48.825Z,13.57
2018-03-22T09:03:26.624Z,9.57
2018-03-22T09:05:59.407Z,10.20
2018-03-22T09:08:33.649Z,9.17
2018-03-22T09:11:10.688Z,8.40
2018-03-22T09:13:46.088Z,8.10
2018-03-22T09:16:22.080Z,6.93
2018-03-22T09:18:53.631Z,9.20
2018-03-22T09:21:23.334Z,9.97
2018-03-22T09:23:53.153Z,6.07
2018-03-22T09:26:22.963Z,8.20
2018-03-22T09:28:52.453Z,7.37
2018-03-22T09:31:21.978Z,7.83
2018-03-22T09:33:52.487Z,7.63
2018-03-22T09:36:28.902Z,8.87
2018-03-22T09:39:03.878Z,6.07
2018-03-22T09:41:39.052Z,6.97
2018-03-22T09:44:12.651Z,9.43
2018-03-22T09:46:46.543Z,7.53
2018-03-22T09:49:21.424Z,8.40
2018-03-22T09:51:54.143Z,8.97
2018-03-22T09:54:30.963Z,9.07
2018-03-22T09:57:07.778Z,8.90
2018-03-22T09:59:40.780Z,5.73
2018-03-22T10:02:12.958Z,9.23
2018-03-22T10:04:51.450Z,7.33
2018-03-22T10:07:27.876Z,6.27
2018-03-22T10:10:02.274Z,6.73
2018-03-22T10:12:36.608Z,5.27
2018-03-22T10:15:12.659Z,8.37
2018-03-22T10:17:46.841Z,8.10
2018-03-22T10:20:37.875Z,6.57
2018-03-22T10:23:08.384Z,8.53
2018-03-22T10:25:37.878Z,10.07
2018-03-22T10:28:07.376Z,9.73
2018-03-22T10:30:39.869Z,6.93
2018-03-22T10:33:16.054Z,9.93
2018-03-22T10:35:51.642Z,9.00
2018-03-22T10:38:21.910Z,9.73
2018-03-22T10:40:52.761Z,6.97
2018-03-22T10:43:25.301Z,9.00
2018-03-22T10:45:54.938Z,11.20
2018-03-22T10:48:26.635Z,9.30
2018-03-22T10:50:56.399Z,8.07
2018-03-22T10:53:26.269Z,8.30
2018-03-22T10:55:58.339Z,13.13
2018-03-22T10:58:33.315Z,13.83
2018-03-22T11:01:11.099Z,14.53
2018-03-22T11:03:48.371Z,11.77
2018-03-22T11:06:17.883Z,12.00
2018-03-22T11:08:48.363Z,15.20
2018-03-22T11:11:18.964Z,15.47
2018-03-22T11:13:49.459Z,14.53
2018-03-22T11:16:20.022Z,12.60
2018-03-22T11:18:49.510Z,16.50
2018-03-22T11:21:19.045Z,9.70
2018-03-22T11:23:49.787Z,12.80
2018-03-22T11:26:24.243Z,10.17
2018-03-22T11:29:00.397Z,11.27
2018-03-22T11:31:31.651Z,10.53
2018-03-22T11:34:07.559Z,7.80
2018-03-22T11:36:39.046Z,8.93
2018-03-22T11:39:08.938Z,12.20
2018-03-22T11:41:38.445Z,15.30
2018-03-22T11:44:08.203Z,8.97
2018-03-22T11:46:37.728Z,10.30
2018-03-22T11:49:07.862Z,11.37
2018-03-22T11:51:37.450Z,8.43
2018-03-22T11:54:06.941Z,8.83
2018-03-22T11:56:37.370Z,8.73
2018-03-22T11:59:09.094Z,7.90
2018-03-22T12:01:38.587Z,7.40
2018-03-22T12:04:08.866Z,6.90
2018-03-22T12:07:15.973Z,7.23
2018-03-22T12:09:47.207Z,9.53
2018-03-22T12:12:20.170Z,5.37
2018-03-22T12:14:57.091Z,9.97
2018-03-22T12:17:33.291Z,7.83
2018-03-22T12:20:07.538Z,8.80
2018-03-22T12:22:44.788Z,9.87
2018-03-22T12:25:14.559Z,6.27
2018-03-22T12:27:45.829Z,6.80
2018-03-22T12:33:02.284Z,7.73
2018-03-22T12:35:34.555Z,8.90
2018-03-22T12:38:10.344Z,5.23
2018-03-22T12:40:42.014Z,4.93
2018-03-22T12:43:11.593Z,9.67
2018-03-22T12:45:42.384Z,7.70
2018-03-22T12:48:12.299Z,5.00
2018-03-22T12:50:42.651Z,6.33
2018-03-22T12:53:12.875Z,6.63
2018-03-22T12:55:43.476Z,6.53
2018-03-22T12:58:18.978Z,7.30
2018-03-22T13:00:48.482Z,5.07
2018-03-22T13:03:17.992Z,7.10
2018-03-22T13:05:47.479Z,6.67
2018-03-22T13:08:18.360Z,6.57
2018-03-22T13:10:48.663Z,8.27
2018-03-22T13:13:19.137Z,6.17
2018-03-22T13:15:52.502Z,7.13
2018-03-22T13:18:23.112Z,6.83
2018-03-22T13:20:53.121Z,9.60
2018-03-22T13:23:22.618Z,5.57
2018-03-22T13:25:52.110Z,7.27
2018-03-22T13:28:21.620Z,7.87
2018-03-22T13:30:52.787Z,8.23
2018-03-22T13:33:28.292Z,5.83
2018-03-22T13:36:03.319Z,5.80
2018-03-22T13:38:33.934Z,6.87
2018-03-22T13:41:03.434Z,8.63
2018-03-22T13:43:33.278Z,7.77
2018-03-22T13:46:02.770Z,6.67
2018-03-22T13:48:32.277Z,6.83
2018-03-22T13:51:01.768Z,7.37
2018-03-22T13:53:34.123Z,5.70
2018-03-22T13:56:07.916Z,7.20
2018-03-22T13:58:37.426Z,6.83
2018-03-22T14:01:08.286Z,7.60
2018-03-22T14:03:37.835Z,5.17
2018-03-22T14:06:07.320Z,6.23
2018-03-22T14:08:37.383Z,5.00
2018-03-22T14:11:08.648Z,5.63
2018-03-22T14:13:42.783Z,7.53
2018-03-22T14:16:13.373Z,5.80
2018-03-22T14:18:45.216Z,6.73
2018-03-22T14:21:14.700Z,7.00
2018-03-22T14:23:46.545Z,7.90
2018-03-22T14:26:16.036Z,7.47
2018-03-22T14:28:46.045Z,6.70
2018-03-22T14:31:18.291Z,4.73
2018-03-22T14:33:54.323Z,8.53
2018-03-22T14:36:27.516Z,9.07
2018-03-22T14:39:04.858Z,6.63
2018-03-22T14:41:35.506Z,7.90
2018-03-22T14:44:04.997Z,5.37
2018-03-22T14:46:36.580Z,6.43
2018-03-22T14:49:06.094Z,5.90
2018-03-22T14:51:35.576Z,7.67
2018-03-22T14:54:06.184Z,6.77
2018-03-22T14:56:38.034Z,6.57
2018-03-22T14:59:09.550Z,5.20
2018-03-22T15:01:39.185Z,5.63
2018-03-22T15:04:11.320Z,8.37
2018-03-22T15:06:41.060Z,8.10
2018-03-22T15:09:11.287Z,5.40
2018-03-22T15:11:40.792Z,5.53
2018-03-22T15:14:12.082Z,7.40
2018-03-22T15:16:47.783Z,6.47
2018-03-22T15:19:21.007Z,5.67
2018-03-22T15:21:51.580Z,7.17
2018-03-22T15:24:44.652Z,7.63
2018-03-22T15:27:14.146Z,7.03
2018-03-22T15:29:43.644Z,6.10
2018-03-22T15:32:13.993Z,9.37
2018-03-22T15:34:46.150Z,6.20
2018-03-22T15:37:32.212Z,5.33
2018-03-22T15:40:02.322Z,3.97
2018-03-22T15:42:36.598Z,5.07
2018-03-22T15:45:11.479Z,4.73
2018-03-22T15:47:43.687Z,7.17
2018-03-22T15:50:14.250Z,6.27
2018-03-22T15:52:44.803Z,5.00
2018-03-22T15:55:14.685Z,6.10
2018-03-22T15:58:07.922Z,7.70
2018-03-22T16:01:06.095Z,4.60
2018-03-22T16:04:00.517Z,4.47
2018-03-22T16:06:55.737Z,5.47
2018-03-22T16:09:50.176Z,9.03
2018-03-22T16:12:43.230Z,8.63
2018-03-22T16:15:35.393Z,6.40
2018-03-22T16:18:27.921Z,6.80
2018-03-22T16:21:24.393Z,7.23
2018-03-22T16:24:18.855Z,6.90
2018-03-22T16:27:14.261Z,4.90
2018-03-22T16:30:14.081Z,6.63
2018-03-22T16:33:07.758Z,8.63
2018-03-22T16:36:04.262Z,6.37
2018-03-22T16:39:00.317Z,9.20
2018-03-22T16:41:57.604Z,6.20
2018-03-22T16:44:52.230Z,8.27
2018-03-22T16:47:49.376Z,7.93
2018-03-22T16:50:44.974Z,5.23
2018-03-22T16:53:40.757Z,5.27
2018-03-22T16:56:33.285Z,6.73
2018-03-22T16:59:25.769Z,7.47
2018-03-22T17:02:21.370Z,7.77
2018-03-22T17:05:16.670Z,5.40
2018-03-22T17:08:10.132Z,5.90
2018-03-22T17:11:03.484Z,6.07
2018-03-22T17:13:57.891Z,7.07
2018-03-22T17:16:50.085Z,6.00
2018-03-22T17:19:42.405Z,4.93
2018-03-22T17:22:38.904Z,5.97
2018-03-22T17:25:32.253Z,6.97
2018-03-22T17:28:26.301Z,5.97
2018-03-22T17:31:24.522Z,6.50
2018-03-22T17:34:17.880Z,8.67
2018-03-22T17:37:11.203Z,7.60
2018-03-22T17:40:04.476Z,8.33
2018-03-22T17:42:56.665Z,4.80
2018-03-22T17:45:52.044Z,7.70
2018-03-22T17:48:47.942Z,7.40
2018-03-22T17:51:41.055Z,9.20
2018-03-22T17:54:34.133Z,8.57
2018-03-22T17:57:29.203Z,6.47
2018-03-22T18:00:21.969Z,8.03
2018-03-22T18:03:18.454Z,7.13
2018-03-22T18:06:16.857Z,10.23
2018-03-22T18:09:14.865Z,7.00
2018-03-22T18:12:15.711Z,5.10
2018-03-22T18:15:11.887Z,5.93
2018-03-22T18:18:05.883Z,4.70
2018-03-22T18:21:00.361Z,4.17
2018-03-22T18:24:02.155Z,6.37
2018-03-22T18:26:55.360Z,7.27
2018-03-22T18:29:59.615Z,5.63
2018-03-22T18:32:58.250Z,4.17
2018-03-22T18:39:03.663Z,5.43
2018-03-22T18:42:03.036Z,5.17
2018-03-22T18:45:08.210Z,5.63
2018-03-22T18:48:05.022Z,5.67
2018-03-22T18:51:00.527Z,5.77
2018-03-22T18:53:54.732Z,4.43
2018-03-22T18:56:54.477Z,7.77
2018-03-22T18:59:50.618Z,5.67
2018-03-22T19:05:59.587Z,5.00
2018-03-22T19:08:56.072Z,4.33
2018-03-22T19:11:53.338Z,6.30
2018-03-22T19:14:57.318Z,7.40
2018-03-22T19:17:52.585Z,6.70
2018-03-22T19:20:47.074Z,5.00
2018-03-22T19:23:41.968Z,6.30
2018-03-22T19:26:41.456Z,7.53
2018-03-22T19:29:36.902Z,7.43
2018-03-22T19:32:43.121Z,5.10
2018-03-22T19:35:39.120Z,5.23
2018-03-22T19:38:31.838Z,5.40
2018-03-22T19:41:24.489Z,8.00
2018-03-22T19:44:17.297Z,6.20
2018-03-22T19:47:10.375Z,5.80
2018-03-22T19:50:05.889Z,4.43
2018-03-22T19:53:03.620Z,7.63
2018-03-22T19:55:58.672Z,4.10
2018-03-22T19:58:51.289Z,5.20
2018-03-22T20:01:44.036Z,7.13
2018-03-22T20:04:36.161Z,7.20
2018-03-22T20:07:32.300Z,5.67
2018-03-22T20:10:26.790Z,4.47
2018-03-22T20:13:22.171Z,6.00
2018-03-22T20:16:18.712Z,6.17
2018-03-22T20:19:16.029Z,6.03
2018-03-22T20:22:17.882Z,4.37
2018-03-22T20:25:10.345Z,4.10
2018-03-22T20:28:04.200Z,6.20
2018-03-22T20:30:57.137Z,6.97
2018-03-22T20:43:07.011Z,6.33
2018-03-22T20:46:06.229Z,5.40
2018-03-22T20:49:10.542Z,5.87
2018-03-22T20:52:04.596Z,6.63
2018-03-22T20:54:56.790Z,6.23
2018-03-22T20:57:49.475Z,7.73
2018-03-22T21:00:45.220Z,5.87
2018-03-22T21:03:38.930Z,6.53
2018-03-22T21:06:31.037Z,6.97
2018-03-22T21:09:23.616Z,6.10
2018-03-22T21:12:15.552Z,4.07
2018-03-22T21:15:08.957Z,5.90
2018-03-22T21:18:01.505Z,4.50
2018-03-22T21:20:54.512Z,6.63
2018-03-22T21:23:48.192Z,6.67
2018-03-22T21:26:40.830Z,5.17
2018-03-22T21:29:33.674Z,7.80
2018-03-22T21:32:25.848Z,6.67
2018-03-22T21:35:18.232Z,5.90
2018-03-22T21:38:11.962Z,6.77
2018-03-22T21:41:07.690Z,5.97
2018-03-22T21:44:09.328Z,4.97
2018-03-22T21:47:03.296Z,6.37
2018-03-22T21:49:56.927Z,4.90
2018-03-22T21:52:54.969Z,4.73
2018-03-22T21:55:46.955Z,7.27
2018-03-22T21:58:39.545Z,9.47
2018-03-22T22:01:35.966Z,7.17
2018-03-22T22:04:30.385Z,5.23
2018-03-22T22:07:23.064Z,5.07
2018-03-22T22:10:15.606Z,6.83
2018-03-22T22:13:08.735Z,7.40
2018-03-22T22:16:01.091Z,6.43
2018-03-22T22:18:53.743Z,7.23
2018-03-22T22:21:46.920Z,4.87
2018-03-22T22:24:41.299Z,5.77
2018-03-22T22:27:36.388Z,10.27
2018-03-22T22:30:31.845Z,7.43
2018-03-22T22:33:36.055Z,7.17
2018-03-22T22:36:28.075Z,6.87
2018-03-22T22:39:21.206Z,5.80
2018-03-22T22:42:14.302Z,4.80
2018-03-22T22:45:06.818Z,6.93
2018-03-22T22:48:01.636Z,13.77
2018-03-22T22:50:54.246Z,7.93
2018-03-22T22:53:48.878Z,7.07
2018-03-22T22:56:43.524Z,4.47
2018-03-22T22:59:41.464Z,4.40
2018-03-22T23:02:33.666Z,5.93
2018-03-22T23:05:25.942Z,4.57
2018-03-22T23:08:19.454Z,5.83
2018-03-22T23:11:11.927Z,5.70
2018-03-22T23:14:05.438Z,7.77
2018-03-22T23:16:59.415Z,4.87
2018-03-22T23:19:54.249Z,4.77
2018-03-22T23:22:50.707Z,13.97
2018-03-22T23:25:44.166Z,8.00
2018-03-22T23:28:36.816Z,7.70
2018-03-22T23:31:32.140Z,10.53
2018-03-22T23:34:26.721Z,5.60
2018-03-22T23:37:18.803Z,8.23
2018-03-22T23:40:11.140Z,9.23
2018-03-22T23:43:03.560Z,9.00
2018-03-22T23:45:56.934Z,6.17
2018-03-22T23:48:49.758Z,7.20
2018-03-22T23:51:44.615Z,6.53
2018-03-22T23:54:38.969Z,11.60
2018-03-22T23:57:31.134Z,5.13
